createdAt,value
2023-04-13T00:00:36.915Z,9.78
2023-04-13T00:05:40.123Z,9.63
2023-04-13T00:10:43.018Z,9.24
2023-04-13T00:15:45.633Z,9.11
2023-04-13T00:20:48.311Z,8.91
2023-04-13T00:25:51.388Z,8.98
2023-04-13T00:30:55.063Z,8.74
2023-04-13T00:35:57.683Z,8.85
2023-04-13T00:41:04.244Z,8.71
2023-04-13T00:46:09.122Z,8.70
2023-04-13T00:51:13.702Z,8.60
2023-04-13T00:56:16.604Z,8.59
2023-04-13T01:01:19.930Z,8.53
2023-04-13T01:06:45.191Z,8.36
2023-04-13T01:12:17.937Z,8.36
2023-04-13T01:23:00.518Z,8.37
2023-04-13T01:28:07.552Z,8.41
2023-04-13T01:33:12.197Z,8.36
2023-04-13T01:38:15.477Z,8.22
2023-04-13T01:43:19.755Z,8.23
2023-04-13T01:48:59.137Z,8.23
2023-04-13T01:54:23.985Z,8.21
2023-04-13T01:59:26.885Z,8.17
2023-04-13T02:04:30.189Z,8.01
2023-04-13T02:09:34.784Z,7.97
2023-04-13T02:14:37.569Z,7.73
2023-04-13T02:19:40.190Z,7.83
2023-04-13T02:24:42.818Z,7.79
2023-04-13T02:29:45.423Z,7.71
2023-04-13T02:34:48.070Z,7.85
2023-04-13T02:39:51.436Z,7.95
2023-04-13T02:44:55.316Z,8.00
2023-04-13T02:49:58.931Z,8.20
2023-04-13T02:55:08.251Z,8.29
2023-04-13T03:00:23.986Z,8.47
2023-04-13T03:05:32.515Z,8.34
2023-04-13T03:10:37.784Z,8.58
2023-04-13T03:15:42.308Z,8.61
2023-04-13T03:20:47.599Z,9.01
2023-04-13T03:25:51.004Z,9.17
2023-04-13T03:30:57.566Z,9.23
2023-04-13T03:36:00.366Z,8.79
2023-04-13T03:41:08.293Z,8.74
2023-04-13T03:46:13.264Z,8.83
2023-04-13T03:51:16.919Z,9.11
2023-04-13T03:56:23.617Z,9.24
2023-04-13T04:01:27.440Z,9.30
2023-04-13T04:06:31.389Z,9.40
2023-04-13T04:11:46.555Z,9.50
2023-04-13T04:16:53.825Z,9.75
2023-04-13T04:21:58.223Z,9.93
2023-04-13T04:27:05.836Z,9.96
2023-04-13T04:32:11.101Z,10.19
2023-04-13T04:37:20.767Z,10.13
2023-04-13T04:42:37.577Z,10.62
2023-04-13T04:47:44.900Z,10.49
2023-04-13T04:52:54.942Z,10.76
2023-04-13T04:58:00.139Z,10.85
2023-04-13T05:03:03.897Z,10.73
2023-04-13T05:08:06.837Z,10.75
2023-04-13T05:13:15.357Z,10.88
2023-04-13T05:18:25.960Z,10.92
2023-04-13T05:23:30.799Z,11.16
2023-04-13T05:28:42.066Z,11.29
2023-04-13T05:33:44.777Z,11.11
2023-04-13T05:38:47.470Z,11.04
2023-04-13T05:43:53.350Z,11.10
2023-04-13T05:48:58.231Z,11.33
2023-04-13T05:54:01.980Z,11.49
2023-04-13T05:59:05.548Z,11.76
2023-04-13T06:04:09.788Z,11.80
2023-04-13T06:09:13.390Z,11.92
2023-04-13T06:14:17.879Z,12.09
2023-04-13T06:19:21.035Z,12.15
2023-04-13T06:24:24.022Z,12.16
2023-04-13T06:29:26.841Z,12.74
2023-04-13T06:34:38.679Z,12.78
2023-04-13T06:39:43.117Z,12.64
2023-04-13T06:44:46.710Z,12.90
2023-04-13T06:49:51.574Z,12.87
2023-04-13T06:54:55.902Z,13.11
2023-04-13T07:00:22.282Z,13.43
2023-04-13T07:05:32.238Z,13.62
2023-04-13T07:10:41.242Z,13.56
2023-04-13T07:15:52.463Z,13.71
2023-04-13T07:20:55.141Z,14.03
2023-04-13T07:26:02.759Z,13.99
2023-04-13T07:31:06.732Z,14.16
2023-04-13T07:36:10.605Z,14.31
2023-04-13T07:41:22.128Z,14.46
2023-04-13T07:46:28.140Z,14.49
2023-04-13T07:51:32.489Z,14.45
2023-04-13T07:56:36.460Z,14.72
2023-04-13T08:01:41.335Z,14.91
2023-04-13T08:06:44.757Z,15.47
2023-04-13T08:11:47.569Z,16.07
2023-04-13T08:16:50.595Z,16.35
2023-04-13T08:21:54.687Z,16.69
2023-04-13T08:26:58.952Z,15.88
2023-04-13T08:32:01.849Z,16.20
2023-04-13T08:37:06.029Z,15.89
2023-04-13T08:42:11.286Z,16.77
2023-04-13T08:47:14.107Z,17.24
2023-04-13T08:52:17.805Z,17.30
2023-04-13T08:57:24.564Z,17.56
2023-04-13T09:02:34.738Z,17.18
2023-04-13T09:07:43.815Z,16.46
2023-04-13T09:12:52.802Z,16.47
2023-04-13T09:17:55.765Z,16.83
2023-04-13T09:22:58.704Z,17.04
2023-04-13T09:28:01.455Z,17.19
2023-04-13T09:33:10.755Z,17.05
2023-04-13T09:38:16.365Z,17.53
2023-04-13T09:43:19.583Z,17.43
2023-04-13T09:48:23.193Z,16.99
2023-04-13T09:53:25.864Z,16.58
2023-04-13T09:58:29.020Z,16.95
2023-04-13T10:03:34.557Z,17.16
2023-04-13T10:08:39.194Z,16.61
2023-04-13T10:13:45.840Z,16.62
2023-04-13T10:19:06.506Z,16.81
2023-04-13T10:24:13.814Z,16.98
2023-04-13T10:29:30.952Z,16.75
2023-04-13T10:34:35.193Z,16.61
2023-04-13T10:39:37.879Z,16.69
2023-04-13T10:44:41.726Z,16.98
2023-04-13T10:49:48.651Z,16.46
2023-04-13T10:54:52.042Z,16.67
2023-04-13T10:59:59.396Z,17.02
2023-04-13T11:05:02.585Z,16.98
2023-04-13T11:10:07.434Z,16.98
2023-04-13T11:15:29.143Z,17.03
2023-04-13T11:20:39.742Z,17.19
2023-04-13T11:25:56.202Z,17.51
2023-04-13T11:30:58.787Z,17.36
2023-04-13T11:36:01.896Z,17.35
2023-04-13T11:46:13.760Z,17.57
2023-04-13T11:51:17.515Z,17.51
2023-04-13T11:56:20.936Z,17.43
2023-04-13T12:01:26.929Z,17.64
2023-04-13T12:06:35.042Z,17.56
2023-04-13T12:11:41.871Z,17.79
2023-04-13T12:21:56.357Z,17.67
2023-04-13T12:32:17.364Z,17.11
2023-04-13T12:37:20.141Z,16.96
2023-04-13T12:42:22.813Z,17.21
2023-04-13T12:47:26.248Z,17.19
2023-04-13T12:52:31.428Z,16.87
2023-04-13T12:57:34.099Z,16.74
2023-04-13T13:02:37.619Z,16.85
2023-04-13T13:07:40.499Z,16.65
2023-04-13T13:12:43.331Z,16.47
2023-04-13T13:17:46.018Z,16.55
2023-04-13T13:22:48.650Z,16.27
2023-04-13T13:32:56.830Z,16.17
2023-04-13T13:38:00.444Z,16.40
2023-04-13T13:43:04.423Z,16.07
2023-04-13T13:48:07.180Z,15.91
2023-04-13T13:53:24.442Z,15.94
2023-04-13T13:58:27.395Z,15.94
2023-04-13T14:03:30.469Z,15.89
2023-04-13T14:08:33.274Z,15.89
2023-04-13T14:13:35.966Z,15.71
2023-04-13T14:18:38.732Z,15.48
2023-04-13T14:23:41.866Z,15.44
2023-04-13T14:28:44.621Z,15.48
2023-04-13T14:33:47.288Z,15.44
2023-04-13T14:38:51.646Z,15.52
2023-04-13T14:43:54.384Z,15.21
2023-04-13T14:48:57.393Z,14.88
2023-04-13T14:54:00.190Z,14.94
2023-04-13T14:59:03.451Z,14.54
2023-04-13T15:04:06.912Z,14.78
2023-04-13T15:09:10.698Z,14.68
2023-04-13T15:14:13.251Z,14.58
2023-04-13T15:19:16.077Z,14.35
2023-04-13T15:24:18.841Z,14.20
2023-04-13T15:29:21.546Z,13.99
2023-04-13T15:34:24.254Z,13.84
2023-04-13T15:39:28.105Z,13.77
2023-04-13T15:44:30.728Z,13.61
2023-04-13T15:49:33.360Z,13.57
2023-04-13T15:54:36.156Z,13.25
2023-04-13T15:59:38.793Z,13.36
2023-04-13T16:04:41.712Z,13.21
2023-04-13T16:09:44.928Z,13.03
2023-04-13T16:14:47.603Z,12.85
2023-04-13T16:19:53.080Z,12.55
2023-04-13T16:24:55.796Z,12.67
2023-04-13T16:29:58.976Z,12.58
2023-04-13T16:35:02.190Z,12.39
2023-04-13T16:40:10.778Z,12.43
2023-04-13T16:45:15.266Z,12.24
2023-04-13T16:50:18.300Z,12.13
2023-04-13T16:55:21.310Z,12.03
2023-04-13T17:00:23.964Z,12.12
2023-04-13T17:05:28.528Z,12.04
2023-04-13T17:10:31.191Z,11.89
2023-04-13T17:15:33.811Z,11.63
2023-04-13T17:20:36.432Z,11.58
2023-04-13T17:25:41.659Z,11.48
2023-04-13T17:30:44.550Z,11.45
2023-04-13T17:35:47.609Z,11.34
2023-04-13T17:40:51.061Z,11.33
2023-04-13T17:45:53.809Z,11.14
2023-04-13T17:50:56.451Z,11.05
2023-04-13T17:55:59.103Z,11.07
2023-04-13T18:01:11.568Z,10.94
2023-04-13T18:06:15.544Z,10.78
2023-04-13T18:11:19.397Z,10.79
2023-04-13T18:16:22.865Z,10.66
2023-04-13T18:21:26.129Z,10.41
2023-04-13T18:26:29.753Z,10.37
2023-04-13T18:31:32.442Z,10.28
2023-04-13T18:36:35.324Z,10.17
2023-04-13T18:41:39.659Z,10.15
2023-04-13T18:46:44.545Z,9.98
2023-04-13T18:51:47.297Z,10.00
2023-04-13T18:56:49.980Z,9.83
2023-04-13T19:01:52.833Z,9.54
2023-04-13T19:06:55.757Z,9.19
2023-04-13T19:12:02.323Z,9.40
2023-04-13T19:17:05.810Z,9.30
2023-04-13T19:22:08.504Z,9.16
2023-04-13T19:27:11.159Z,9.05
2023-04-13T19:32:16.873Z,8.96
2023-04-13T19:37:19.674Z,8.71
2023-04-13T19:42:22.490Z,8.61
2023-04-13T19:47:25.177Z,8.45
2023-04-13T19:52:27.844Z,8.44
2023-04-13T19:57:30.769Z,8.35
2023-04-13T20:02:33.531Z,8.23
2023-04-13T20:07:36.262Z,8.16
2023-04-13T20:12:39.375Z,7.78
2023-04-13T20:17:42.041Z,7.68
2023-04-13T20:22:44.621Z,7.81
2023-04-13T20:27:47.266Z,7.74
2023-04-13T20:32:49.997Z,7.65
2023-04-13T20:37:52.755Z,7.55
2023-04-13T20:42:58.563Z,7.35
2023-04-13T20:53:24.949Z,7.21
2023-04-13T20:58:28.831Z,7.08
2023-04-13T21:03:32.169Z,7.00
2023-04-13T21:08:35.074Z,6.89
2023-04-13T21:13:37.733Z,6.79
2023-04-13T21:18:44.066Z,6.64
2023-04-13T21:23:51.348Z,6.46
2023-04-13T21:28:54.195Z,6.48
2023-04-13T21:33:59.223Z,6.47
2023-04-13T21:39:02.928Z,6.35
2023-04-13T21:44:19.122Z,6.16
2023-04-13T21:49:31.288Z,6.14
2023-04-13T21:54:33.886Z,6.01
2023-04-13T21:59:36.652Z,5.88
2023-04-13T22:04:39.323Z,5.82
2023-04-13T22:09:42.092Z,5.79
2023-04-13T22:14:44.788Z,5.67
2023-04-13T22:19:48.128Z,5.55
2023-04-13T22:24:52.481Z,5.48
2023-04-13T22:29:55.179Z,5.42
2023-04-13T22:34:57.864Z,5.41
2023-04-13T22:40:01.420Z,5.33
2023-04-13T22:45:05.402Z,5.19
2023-04-13T22:50:08.259Z,5.01
2023-04-13T22:55:10.897Z,4.96
2023-04-13T23:00:14.341Z,4.80
2023-04-13T23:05:17.541Z,4.68
2023-04-13T23:10:20.284Z,4.61
2023-04-13T23:15:22.955Z,4.52
2023-04-13T23:20:27.772Z,4.47
2023-04-13T23:25:31.753Z,4.34
2023-04-13T23:30:34.456Z,4.31
2023-04-13T23:35:37.114Z,4.15
2023-04-13T23:40:39.730Z,3.98
2023-04-13T23:45:42.794Z,3.79
2023-04-13T23:50:45.694Z,3.63
2023-04-13T23:55:48.360Z,3.57
